aviador You're here:

KLIC Decoded Metar

LIMON in CO, USA
Report Time2017-05-28 23:55:00
UTC Time2017-05-29 00:07:38
Flight Rules vfr VFR
Wind350° at 05 kt
W.Decomp.*RWY 34: 5.0 kt HW 0.1 kt LCW
W.Rank350° ranks 1
Current wind is below 350° avg. (9.7)
Visibility9999 m
Phenomena:N/A
Clouds:N/A
Expected CloudBase > 7,200 ft AGL from Temp-Dew spread
CeilingNone
Temp19°C (ISA +15)
Dew Point01°C (30% RH)
AAT15.4°C
QNH1023 hPa
Density Alt6,798 ft
Elevation5,348 ft
Report Wrong Elevation
Raw Report
KLIC 282355Z AUTO 35005KT 10SM CLR 19/01 A3020 RMK AO2 SLP191
T01940011 10206 20172 58013=

Extra information for KLIC:More info

Metar Taf Metar & Taf Last 4 Metars F.Rules Stats Wind Profile Meteogram Temp Stats Airport Information Weather charts Add Link Nearby VenuesMetar ALERT Operation Metar Decoded Social comments

AIRNAV info for KLIC